createdAt,value
2018-08-20T00:01:35.539Z,70.96
2018-08-20T00:04:05.828Z,70.39
2018-08-20T00:06:47.579Z,71.81
2018-08-20T00:09:16.123Z,71.75
2018-08-20T00:11:45.411Z,71.07
2018-08-20T00:14:13.919Z,70.97
2018-08-20T00:16:43.489Z,71.35
2018-08-20T00:19:13.780Z,70.85
2018-08-20T00:21:44.027Z,71.72
2018-08-20T00:24:12.439Z,71.57
2018-08-20T00:26:40.975Z,71.88
2018-08-20T00:29:09.590Z,71.28
2018-08-20T00:31:38.011Z,71.80
2018-08-20T00:34:06.554Z,72.13
2018-08-20T00:36:35.099Z,71.69
2018-08-20T00:39:03.836Z,72.55
2018-08-20T00:41:32.370Z,71.78
2018-08-20T00:44:00.859Z,72.43
2018-08-20T00:46:29.315Z,74.16
2018-08-20T00:48:57.752Z,73.00
2018-08-20T00:51:26.424Z,72.88
2018-08-20T00:53:54.852Z,72.75
2018-08-20T00:56:23.251Z,72.54
2018-08-20T00:58:51.883Z,72.83
2018-08-20T01:01:20.288Z,73.30
2018-08-20T01:03:48.715Z,72.77
2018-08-20T01:06:17.372Z,75.22
2018-08-20T01:08:45.821Z,76.42
2018-08-20T01:11:14.295Z,76.09
2018-08-20T01:13:42.827Z,76.09
2018-08-20T01:16:11.276Z,76.17
2018-08-20T01:18:39.783Z,76.09
2018-08-20T01:21:08.417Z,75.72
2018-08-20T01:23:36.843Z,75.77
2018-08-20T01:26:05.247Z,74.78
2018-08-20T01:28:33.686Z,75.27
2018-08-20T01:31:02.179Z,76.03
2018-08-20T01:33:30.627Z,75.68
2018-08-20T01:35:59.124Z,75.73
2018-08-20T01:38:27.787Z,77.74
2018-08-20T01:40:56.316Z,76.53
2018-08-20T01:43:24.923Z,76.42
2018-08-20T01:45:53.400Z,76.56
2018-08-20T01:48:21.823Z,75.77
2018-08-20T01:50:50.395Z,76.02
2018-08-20T01:53:19.007Z,77.04
2018-08-20T01:55:47.482Z,77.09
2018-08-20T01:58:16.139Z,77.61
2018-08-20T02:00:44.807Z,77.09
2018-08-20T02:03:13.291Z,77.43
2018-08-20T02:05:41.928Z,77.45
2018-08-20T02:08:10.423Z,78.17
2018-08-20T02:10:38.935Z,77.42
2018-08-20T02:13:07.415Z,77.60
2018-08-20T02:15:35.891Z,77.93
2018-08-20T02:18:04.383Z,77.38
2018-08-20T02:20:32.990Z,77.36
2018-08-20T02:23:01.460Z,78.44
2018-08-20T02:25:29.954Z,78.45
2018-08-20T02:27:58.591Z,77.22
2018-08-20T02:30:27.091Z,77.80
2018-08-20T02:32:55.517Z,77.69
2018-08-20T02:35:24.115Z,79.04
2018-08-20T02:37:52.584Z,79.04
2018-08-20T02:40:21.158Z,79.42
2018-08-20T02:42:49.847Z,79.33
2018-08-20T02:45:19.245Z,80.01
2018-08-20T02:47:47.911Z,79.76
2018-08-20T02:50:16.851Z,79.98
2018-08-20T02:52:45.940Z,79.80
2018-08-20T02:55:14.615Z,79.86
2018-08-20T02:57:43.047Z,80.37
2018-08-20T03:00:13.668Z,80.66
2018-08-20T03:02:42.155Z,80.54
2018-08-20T03:05:12.123Z,81.97
2018-08-20T03:07:40.575Z,82.55
2018-08-20T03:10:11.376Z,81.14
2018-08-20T03:12:40.039Z,81.83
2018-08-20T03:15:09.543Z,82.01
2018-08-20T03:17:38.244Z,81.58
2018-08-20T03:20:07.248Z,81.56
2018-08-20T03:22:35.718Z,81.79
2018-08-20T03:25:05.103Z,81.22
2018-08-20T03:27:33.547Z,82.07
2018-08-20T03:30:02.040Z,81.45
2018-08-20T03:32:30.813Z,81.49
2018-08-20T03:34:59.306Z,81.03
2018-08-20T03:37:27.991Z,80.85
2018-08-20T03:39:56.411Z,80.87
2018-08-20T03:42:24.942Z,81.50
2018-08-20T03:44:53.515Z,82.08
2018-08-20T03:47:22.472Z,82.13
2018-08-20T03:49:51.529Z,81.02
2018-08-20T03:52:20.023Z,81.45
2018-08-20T03:54:48.503Z,81.39
2018-08-20T03:57:17.009Z,81.61
2018-08-20T03:59:45.451Z,81.67
2018-08-20T04:02:14.039Z,82.10
2018-08-20T04:04:42.491Z,81.51
2018-08-20T04:07:11.002Z,81.12
2018-08-20T04:09:39.646Z,80.90
2018-08-20T04:12:08.108Z,80.37
2018-08-20T04:14:36.534Z,80.92
2018-08-20T04:17:05.166Z,81.79
2018-08-20T04:19:33.611Z,81.18
2018-08-20T04:22:02.067Z,81.59
2018-08-20T04:24:30.748Z,81.16
2018-08-20T04:26:59.279Z,80.85
2018-08-20T04:29:27.714Z,80.64
2018-08-20T04:31:56.276Z,81.39
2018-08-20T04:34:24.711Z,81.48
2018-08-20T04:36:53.235Z,81.02
2018-08-20T04:39:21.703Z,81.44
2018-08-20T04:41:50.116Z,82.26
2018-08-20T04:44:18.579Z,82.21
2018-08-20T04:46:47.095Z,81.76
2018-08-20T04:49:15.495Z,80.43
2018-08-20T04:51:43.975Z,81.08
2018-08-20T04:54:12.679Z,81.99
2018-08-20T04:56:41.142Z,80.85
2018-08-20T04:59:09.970Z,80.27
2018-08-20T05:01:38.465Z,81.05
2018-08-20T05:04:07.383Z,82.14
2018-08-20T05:06:35.857Z,81.70
2018-08-20T05:09:05.840Z,81.57
2018-08-20T05:11:34.317Z,80.38
2018-08-20T05:14:02.804Z,77.66
2018-08-20T05:16:31.326Z,75.23
2018-08-20T05:18:59.806Z,73.34
2018-08-20T05:21:28.228Z,71.70
2018-08-20T05:23:57.063Z,71.34
2018-08-20T05:26:25.564Z,70.85
2018-08-20T05:28:54.039Z,69.57
2018-08-20T05:31:22.543Z,68.64
2018-08-20T05:33:50.999Z,67.86
2018-08-20T05:36:19.419Z,66.93
2018-08-20T05:38:47.925Z,67.67
2018-08-20T05:41:16.399Z,67.02
2018-08-20T05:43:44.804Z,66.42
2018-08-20T05:46:13.461Z,65.27
2018-08-20T05:48:41.916Z,64.99
2018-08-20T05:51:10.351Z,64.63
2018-08-20T05:53:38.803Z,64.05
2018-08-20T05:56:07.210Z,64.19
2018-08-20T05:58:35.751Z,65.16
2018-08-20T06:01:04.419Z,64.44
2018-08-20T06:03:32.857Z,65.36
2018-08-20T06:06:01.320Z,65.03
2018-08-20T06:08:29.858Z,64.85
2018-08-20T06:10:58.331Z,65.22
2018-08-20T06:13:26.795Z,63.82
2018-08-20T06:15:55.587Z,64.54
2018-08-20T06:18:24.028Z,64.88
2018-08-20T06:20:52.626Z,65.81
2018-08-20T06:23:21.152Z,64.93
2018-08-20T06:25:49.583Z,63.43
2018-08-20T06:28:18.183Z,62.57
2018-08-20T06:30:46.600Z,63.55
2018-08-20T06:33:15.077Z,62.75
2018-08-20T06:35:43.533Z,62.02
2018-08-20T06:38:12.008Z,62.27
2018-08-20T06:40:40.539Z,62.28
2018-08-20T06:43:09.047Z,62.62
2018-08-20T06:45:37.580Z,62.53
2018-08-20T06:48:06.398Z,63.78
2018-08-20T06:50:34.886Z,63.80
2018-08-20T06:53:03.303Z,65.08
2018-08-20T06:55:31.855Z,64.81
2018-08-20T06:58:02.192Z,64.00
2018-08-20T07:00:31.747Z,64.45
2018-08-20T07:03:00.249Z,63.87
2018-08-20T07:05:28.834Z,64.61
2018-08-20T07:07:57.352Z,65.66
2018-08-20T07:10:26.986Z,64.76
2018-08-20T07:12:55.532Z,64.72
2018-08-20T07:15:24.145Z,64.85
2018-08-20T07:17:52.664Z,64.91
2018-08-20T07:20:21.227Z,64.79
2018-08-20T07:22:49.729Z,64.41
2018-08-20T07:25:18.169Z,64.89
2018-08-20T07:27:46.696Z,64.22
2018-08-20T07:30:15.150Z,63.23
2018-08-20T07:32:43.584Z,64.83
2018-08-20T07:35:12.121Z,63.51
2018-08-20T07:37:40.684Z,65.61
2018-08-20T07:40:09.360Z,64.94
2018-08-20T07:42:37.951Z,64.79
2018-08-20T07:45:06.587Z,64.49
2018-08-20T07:47:35.111Z,62.94
2018-08-20T07:50:03.667Z,64.78
2018-08-20T07:52:32.378Z,65.13
2018-08-20T07:55:00.807Z,64.77
2018-08-20T07:57:29.225Z,63.74
2018-08-20T07:59:57.678Z,63.49
2018-08-20T08:02:26.196Z,64.01
2018-08-20T08:04:54.635Z,64.37
2018-08-20T08:07:23.238Z,63.22
2018-08-20T08:09:51.715Z,63.02
2018-08-20T08:12:20.165Z,63.96
2018-08-20T08:14:48.695Z,64.26
2018-08-20T08:17:17.159Z,63.32
2018-08-20T08:19:45.620Z,63.08
2018-08-20T08:22:14.400Z,62.18
2018-08-20T08:24:42.896Z,62.70
2018-08-20T08:27:11.321Z,62.12
2018-08-20T08:29:40.143Z,62.83
2018-08-20T08:32:08.655Z,62.45
2018-08-20T08:34:37.128Z,62.09
2018-08-20T08:37:06.032Z,62.33
2018-08-20T08:39:34.507Z,60.94
2018-08-20T08:42:03.148Z,61.05
2018-08-20T08:44:31.719Z,61.14
2018-08-20T08:47:00.212Z,59.84
2018-08-20T08:49:28.722Z,61.13
2018-08-20T08:51:57.348Z,59.50
2018-08-20T08:54:25.891Z,59.73
2018-08-20T08:56:54.347Z,59.99
2018-08-20T08:59:23.244Z,60.08
2018-08-20T09:01:51.791Z,58.29
2018-08-20T09:04:20.271Z,61.32
2018-08-20T09:06:48.872Z,60.94
2018-08-20T09:09:17.332Z,60.39
2018-08-20T09:11:45.843Z,61.27
2018-08-20T09:14:14.512Z,60.12
2018-08-20T09:16:43.171Z,57.98
2018-08-20T09:19:11.643Z,58.25
2018-08-20T09:21:40.169Z,57.66
2018-08-20T09:24:09.316Z,57.62
2018-08-20T09:26:37.855Z,57.69
2018-08-20T09:29:06.691Z,56.75
2018-08-20T09:31:35.155Z,56.71
2018-08-20T09:34:03.647Z,58.09
2018-08-20T09:36:32.399Z,56.47
2018-08-20T09:39:00.960Z,54.47
2018-08-20T09:41:29.651Z,56.17
2018-08-20T09:43:58.319Z,56.33
2018-08-20T09:46:26.728Z,56.29
2018-08-20T09:48:55.218Z,56.57
2018-08-20T09:51:24.014Z,55.21
2018-08-20T09:53:52.495Z,55.34
2018-08-20T09:56:20.987Z,56.05
2018-08-20T09:58:49.655Z,54.59
2018-08-20T10:01:18.183Z,55.06
2018-08-20T10:03:46.991Z,53.72
2018-08-20T10:06:16.467Z,53.10
2018-08-20T10:08:45.255Z,54.08
2018-08-20T10:11:14.151Z,53.02
2018-08-20T10:13:42.880Z,54.00
2018-08-20T10:16:11.345Z,54.08
2018-08-20T10:18:40.343Z,51.85
2018-08-20T10:21:08.839Z,50.82
2018-08-20T10:23:37.275Z,51.71
2018-08-20T10:26:06.343Z,50.87
2018-08-20T10:28:34.980Z,50.39
2018-08-20T10:31:03.594Z,49.65
2018-08-20T10:33:32.103Z,52.93
2018-08-20T10:36:00.752Z,52.15
2018-08-20T10:38:29.208Z,50.43
2018-08-20T10:40:57.699Z,50.12
2018-08-20T10:43:26.150Z,50.86
2018-08-20T10:45:59.900Z,50.60
2018-08-20T10:48:28.328Z,51.36
2018-08-20T10:50:56.902Z,50.89
2018-08-20T10:53:25.395Z,50.97
2018-08-20T10:55:53.882Z,51.29
2018-08-20T10:58:22.385Z,50.60
2018-08-20T11:00:50.851Z,48.68
2018-08-20T11:03:19.412Z,48.65
2018-08-20T11:05:47.883Z,48.74
2018-08-20T11:08:16.316Z,49.58
2018-08-20T11:10:44.965Z,49.34
2018-08-20T11:13:13.456Z,49.43
2018-08-20T11:15:41.940Z,48.81
2018-08-20T11:18:10.435Z,48.62
2018-08-20T11:20:38.934Z,49.74
2018-08-20T11:23:07.383Z,49.02
2018-08-20T11:25:35.931Z,48.64
2018-08-20T11:28:04.548Z,46.82
2018-08-20T11:30:32.927Z,47.43
2018-08-20T11:33:01.546Z,47.87
2018-08-20T11:35:29.969Z,49.24
2018-08-20T11:37:58.543Z,48.15
2018-08-20T11:40:27.095Z,48.10
2018-08-20T11:42:55.587Z,46.57
2018-08-20T11:45:24.076Z,47.29
2018-08-20T11:47:52.556Z,47.46
2018-08-20T11:50:21.029Z,47.88
2018-08-20T11:52:49.533Z,47.64
2018-08-20T11:55:17.979Z,45.77
2018-08-20T11:57:46.500Z,47.06
2018-08-20T12:00:14.963Z,47.39
2018-08-20T12:02:43.731Z,45.06
2018-08-20T12:05:12.234Z,45.27
2018-08-20T12:07:40.712Z,45.65
2018-08-20T12:10:10.169Z,43.53
2018-08-20T12:12:39.137Z,43.83
2018-08-20T12:15:09.807Z,44.20
2018-08-20T12:17:38.411Z,45.02
2018-08-20T12:20:07.812Z,44.50
2018-08-20T12:22:36.544Z,45.36
2018-08-20T12:25:06.060Z,45.16
2018-08-20T12:27:34.745Z,44.38
2018-08-20T12:30:03.575Z,44.93
2018-08-20T12:32:31.963Z,44.13
2018-08-20T12:35:00.496Z,45.34
2018-08-20T12:37:28.983Z,45.70
2018-08-20T12:39:57.657Z,46.00
2018-08-20T12:42:26.084Z,45.02
2018-08-20T12:44:54.736Z,43.40
2018-08-20T12:47:23.151Z,43.49
2018-08-20T12:49:51.582Z,43.07
2018-08-20T12:52:20.215Z,44.03
2018-08-20T12:54:48.723Z,44.13
2018-08-20T12:57:17.185Z,43.35
2018-08-20T12:59:45.647Z,43.08
2018-08-20T13:02:14.115Z,43.59
2018-08-20T13:04:42.743Z,43.43
2018-08-20T13:07:11.503Z,42.00
2018-08-20T13:09:39.911Z,41.61
2018-08-20T13:12:08.560Z,43.25
2018-08-20T13:14:37.028Z,43.20
2018-08-20T13:17:05.752Z,43.67
2018-08-20T13:19:34.195Z,42.39
2018-08-20T13:22:02.723Z,43.80
2018-08-20T13:24:31.240Z,43.64
2018-08-20T13:26:59.779Z,43.12
2018-08-20T13:29:28.348Z,43.68
2018-08-20T13:31:56.861Z,44.13
2018-08-20T13:34:25.347Z,42.99
2018-08-20T13:36:54.027Z,44.50
2018-08-20T13:39:22.455Z,44.11
2018-08-20T13:41:50.885Z,43.63
2018-08-20T13:44:20.133Z,43.90
2018-08-20T13:46:48.689Z,43.04
2018-08-20T13:49:17.096Z,43.91
2018-08-20T13:51:45.657Z,43.79
2018-08-20T13:54:14.118Z,44.51
2018-08-20T13:56:42.533Z,43.90
2018-08-20T13:59:11.040Z,44.47
2018-08-20T14:01:39.505Z,44.54
2018-08-20T14:04:08.129Z,44.47
2018-08-20T14:06:36.664Z,43.72
2018-08-20T14:09:07.511Z,43.54
2018-08-20T14:11:36.059Z,44.32
2018-08-20T14:14:04.895Z,43.19
2018-08-20T14:16:33.327Z,43.75
2018-08-20T14:19:01.800Z,43.97
2018-08-20T14:21:30.327Z,43.62
2018-08-20T14:23:58.778Z,43.83
2018-08-20T14:26:27.387Z,43.29
2018-08-20T14:28:55.931Z,42.62
2018-08-20T14:31:24.380Z,42.67
2018-08-20T14:33:53.165Z,43.70
2018-08-20T14:36:21.605Z,44.08
2018-08-20T14:38:50.089Z,43.69
2018-08-20T14:41:18.626Z,42.45
2018-08-20T14:43:47.048Z,43.03
2018-08-20T14:46:20.449Z,41.86
2018-08-20T14:48:49.389Z,42.30
2018-08-20T14:51:17.988Z,41.47
2018-08-20T14:53:46.572Z,42.47
2018-08-20T14:56:15.068Z,42.50
2018-08-20T14:58:43.555Z,44.27
2018-08-20T15:01:12.144Z,43.55
2018-08-20T15:03:40.555Z,44.27
2018-08-20T15:06:09.087Z,44.39
2018-08-20T15:08:39.459Z,44.53
2018-08-20T15:11:08.000Z,43.00
2018-08-20T15:13:36.824Z,43.18
2018-08-20T15:16:05.476Z,43.26
2018-08-20T15:18:33.998Z,43.02
2018-08-20T15:21:02.480Z,42.13
2018-08-20T15:23:31.003Z,42.83
2018-08-20T15:25:59.399Z,43.19
2018-08-20T15:28:27.859Z,43.56
2018-08-20T15:30:56.520Z,43.58
2018-08-20T15:33:25.053Z,43.45
2018-08-20T15:35:53.548Z,43.51
2018-08-20T15:38:22.312Z,42.95
2018-08-20T15:40:50.722Z,44.05
2018-08-20T15:43:19.244Z,43.63
2018-08-20T15:45:47.760Z,44.05
2018-08-20T15:48:16.214Z,42.18
2018-08-20T15:50:44.638Z,42.95
2018-08-20T15:53:13.166Z,42.41
2018-08-20T15:55:41.578Z,42.37
2018-08-20T15:58:10.123Z,42.52
2018-08-20T16:00:38.751Z,43.27
2018-08-20T16:03:07.571Z,43.37
2018-08-20T16:05:36.155Z,42.57
2018-08-20T16:08:04.960Z,43.86
2018-08-20T16:10:33.383Z,42.94
2018-08-20T16:13:01.907Z,43.11
2018-08-20T16:15:30.368Z,43.80
2018-08-20T16:17:58.852Z,43.48
2018-08-20T16:20:27.310Z,43.81
2018-08-20T16:22:55.863Z,42.83
2018-08-20T16:25:24.435Z,42.87
2018-08-20T16:27:52.939Z,44.47
2018-08-20T16:30:21.724Z,44.47
2018-08-20T16:32:50.223Z,44.83
2018-08-20T16:35:18.643Z,44.24
2018-08-20T16:37:47.595Z,44.63
2018-08-20T16:40:16.140Z,44.21
2018-08-20T16:42:44.632Z,45.56
2018-08-20T16:45:13.115Z,44.82
2018-08-20T16:47:41.593Z,44.31
2018-08-20T16:50:12.199Z,46.09
2018-08-20T16:52:40.921Z,45.45
2018-08-20T16:55:10.202Z,44.80
2018-08-20T16:57:38.895Z,44.78
2018-08-20T17:00:09.544Z,45.37
2018-08-20T17:02:41.419Z,46.32
2018-08-20T17:05:11.363Z,46.05
2018-08-20T17:07:39.852Z,45.70
2018-08-20T17:10:10.110Z,46.29
2018-08-20T17:12:38.880Z,46.83
2018-08-20T17:15:13.431Z,47.06
2018-08-20T17:17:41.975Z,46.94
2018-08-20T17:20:12.019Z,47.58
2018-08-20T17:22:40.731Z,47.46
2018-08-20T17:25:09.420Z,47.97
2018-08-20T17:27:37.904Z,48.20
2018-08-20T17:30:08.307Z,47.59
2018-08-20T17:32:36.828Z,48.63
2018-08-20T17:35:07.876Z,48.41
2018-08-20T17:37:36.404Z,48.28
2018-08-20T17:40:09.507Z,48.80
2018-08-20T17:42:38.189Z,49.89
2018-08-20T17:45:08.414Z,49.65
2018-08-20T17:47:40.098Z,50.76
2018-08-20T17:50:24.575Z,50.69
2018-08-20T17:52:53.629Z,51.11
2018-08-20T17:55:22.486Z,51.47
2018-08-20T17:57:51.418Z,51.05
2018-08-20T18:00:24.800Z,51.34
2018-08-20T18:02:53.295Z,50.97
2018-08-20T18:05:23.454Z,51.20
2018-08-20T18:07:52.475Z,52.44
2018-08-20T18:10:21.232Z,52.61
2018-08-20T18:12:49.735Z,52.51
2018-08-20T18:15:18.358Z,51.96
2018-08-20T18:17:46.996Z,52.96
2018-08-20T18:20:15.521Z,53.98
2018-08-20T18:22:44.070Z,53.48
2018-08-20T18:25:13.188Z,53.36
2018-08-20T18:27:43.668Z,53.40
2018-08-20T18:30:14.027Z,53.26
2018-08-20T18:32:42.932Z,54.52
2018-08-20T18:35:11.886Z,55.23
2018-08-20T18:37:51.425Z,55.43
2018-08-20T18:40:20.360Z,55.77
2018-08-20T18:42:49.848Z,57.48
2018-08-20T18:45:18.934Z,58.15
2018-08-20T18:47:48.049Z,57.63
2018-08-20T18:50:17.093Z,58.31
2018-08-20T18:52:46.292Z,59.22
2018-08-20T18:55:15.268Z,60.24
2018-08-20T18:57:44.327Z,60.11
2018-08-20T19:00:14.459Z,61.57
2018-08-20T19:02:52.960Z,62.36
2018-08-20T19:05:23.050Z,61.77
2018-08-20T19:07:52.093Z,62.14
2018-08-20T19:10:23.402Z,62.24
2018-08-20T19:12:53.041Z,62.23
2018-08-20T19:15:39.414Z,64.28
2018-08-20T19:18:10.135Z,62.31
2018-08-20T19:20:39.591Z,63.69
2018-08-20T19:23:09.194Z,64.41
2018-08-20T19:25:38.349Z,64.59
2018-08-20T19:28:12.530Z,63.88
2018-08-20T19:30:41.632Z,63.95
2018-08-20T19:33:16.502Z,64.06
2018-08-20T19:35:45.866Z,63.13
2018-08-20T19:38:15.026Z,64.07
2018-08-20T19:40:44.092Z,62.87
2018-08-20T19:43:13.219Z,63.67
2018-08-20T19:45:45.033Z,64.53
2018-08-20T19:48:15.159Z,65.10
2018-08-20T19:50:44.178Z,64.48
2018-08-20T19:53:18.180Z,65.29
2018-08-20T19:55:47.297Z,64.65
2018-08-20T19:58:36.399Z,65.76
2018-08-20T20:01:14.936Z,65.87
2018-08-20T20:03:47.205Z,66.13
2018-08-20T20:06:16.567Z,65.63
2018-08-20T20:08:45.806Z,65.75
2018-08-20T20:11:22.886Z,66.25
2018-08-20T20:16:54.372Z,67.24
2018-08-20T20:19:23.498Z,66.09
2018-08-20T20:21:52.430Z,68.08
2018-08-20T20:24:21.413Z,67.73
2018-08-20T20:26:50.893Z,68.71
2018-08-20T20:29:20.829Z,69.12
2018-08-20T20:31:49.832Z,68.52
2018-08-20T20:34:19.110Z,68.08
2018-08-20T20:36:47.912Z,68.31
2018-08-20T20:39:16.433Z,69.14
2018-08-20T20:41:45.020Z,68.12
2018-08-20T20:44:13.651Z,68.77
2018-08-20T20:46:42.172Z,68.97
2018-08-20T20:49:10.823Z,68.11
2018-08-20T20:51:39.280Z,68.50
2018-08-20T20:54:07.847Z,69.10
2018-08-20T20:56:36.358Z,68.77
2018-08-20T20:59:04.820Z,68.54
2018-08-20T21:01:33.390Z,69.52
2018-08-20T21:04:05.096Z,70.01
2018-08-20T21:06:36.845Z,69.08
2018-08-20T21:09:11.283Z,69.84
2018-08-20T21:11:39.813Z,69.69
2018-08-20T21:14:08.450Z,68.55
2018-08-20T21:16:37.115Z,68.83
2018-08-20T21:19:06.192Z,67.42
2018-08-20T21:21:34.779Z,66.90
2018-08-20T21:24:06.590Z,68.05
2018-08-20T21:26:35.144Z,67.46
2018-08-20T21:29:03.663Z,68.95
2018-08-20T21:31:37.655Z,69.11
2018-08-20T21:34:06.167Z,68.66
2018-08-20T21:36:34.649Z,69.94
2018-08-20T21:39:03.881Z,70.91
2018-08-20T21:41:32.319Z,73.23
2018-08-20T21:44:01.155Z,73.37
2018-08-20T21:46:29.819Z,73.63
2018-08-20T21:48:58.227Z,72.52
2018-08-20T21:51:33.752Z,71.61
2018-08-20T21:54:02.265Z,71.44
2018-08-20T21:56:42.197Z,69.96
2018-08-20T21:59:10.723Z,70.68
2018-08-20T22:01:39.227Z,68.59
2018-08-20T22:04:13.119Z,68.48
2018-08-20T22:06:41.664Z,70.18
2018-08-20T22:09:10.091Z,70.25
2018-08-20T22:11:38.572Z,71.10
2018-08-20T22:14:07.140Z,71.19
2018-08-20T22:16:35.607Z,72.59
2018-08-20T22:19:04.171Z,72.54
2018-08-20T22:21:32.623Z,71.83
2018-08-20T22:24:02.442Z,73.23
2018-08-20T22:26:30.982Z,73.48
2018-08-20T22:28:59.962Z,73.02
2018-08-20T22:31:28.751Z,72.24
2018-08-20T22:34:02.511Z,72.20
2018-08-20T22:36:32.104Z,73.01
2018-08-20T22:39:01.640Z,72.29
2018-08-20T22:41:31.076Z,71.85
2018-08-20T22:44:06.225Z,70.72
2018-08-20T22:46:34.747Z,71.84
2018-08-20T22:49:03.139Z,71.04
2018-08-20T22:51:31.631Z,71.13
2018-08-20T22:54:01.463Z,71.65
2018-08-20T22:56:31.335Z,70.99
2018-08-20T22:59:06.433Z,70.54
2018-08-20T23:01:34.946Z,70.18
2018-08-20T23:04:03.568Z,69.91
2018-08-20T23:06:31.986Z,70.13
2018-08-20T23:09:09.242Z,70.67
2018-08-20T23:11:42.275Z,71.23
2018-08-20T23:14:13.011Z,71.87
2018-08-20T23:16:41.791Z,72.23
2018-08-20T23:19:10.813Z,70.96
2018-08-20T23:21:41.275Z,71.28
2018-08-20T23:24:10.635Z,71.77
2018-08-20T23:26:39.336Z,71.58
2018-08-20T23:29:08.087Z,72.45
2018-08-20T23:31:36.739Z,72.02
2018-08-20T23:34:09.567Z,71.15
2018-08-20T23:36:38.371Z,71.66
2018-08-20T23:39:11.447Z,71.96
2018-08-20T23:41:40.223Z,71.84
2018-08-20T23:44:09.133Z,72.76
2018-08-20T23:46:43.812Z,73.74
2018-08-20T23:49:12.392Z,73.42
2018-08-20T23:51:40.983Z,73.72
2018-08-20T23:54:10.671Z,73.52
2018-08-20T23:56:39.134Z,74.34
2018-08-20T23:59:12.236Z,73.33
